METAR Data
IDs: Format: Raw Decoded Include TAF

Data at: 2111 UTC 08 Aug 2020

KGCN 082054Z 26009G17KT 10SM CLR 29/M02 A3030 RMK AO2 SLP168 T02941022 56014
KGCN 081954Z 23012G26KT 10SM CLR 29/00 A3032 RMK AO2 PK WND 22026/1948 SLP171 T02940000
KGCN 081854Z 24011G19KT 10SM CLR 28/M01 A3033 RMK AO2 PK WND 20026/1817 SLP175 T02831011
KGCN 081754Z 21018G24KT 10SM CLR 28/M01 A3035 RMK AO2 SLP183 T02781011 10278 20039 58001
KGCN 081654Z 25004KT 10SM CLR 26/M01 A3036 RMK AO2 SLP186 T02561011
KGCN 081554Z 21009KT 10SM CLR 24/00 A3036 RMK AO2 SLP185 T02440000
KGCN 081454Z AUTO 00000KT 10SM CLR 21/00 A3036 RMK AO2 SLP173 T02060000 53013
KGCN 081354Z AUTO 05003KT 10SM CLR 11/M02 A3034 RMK AO2 SLP180 T01061022
KGCN 081254Z AUTO 00000KT 10SM CLR 04/M04 A3033 RMK AO2 SLP186 T00441044
KGCN 081154Z AUTO 00000KT 10SM CLR 05/M05 A3031 RMK AO2 SLP174 T00501050 10106 20044 53003
KGCN 081054Z AUTO 00000KT 10SM CLR 05/M05 A3030 RMK AO2 SLP172 T00501050
KGCN 080954Z AUTO 00000KT 10SM CLR 06/M06 A3030 RMK AO2 SLP170 T00561061
KGCN 080854Z AUTO 05003KT 10SM CLR 07/M06 A3030 RMK AO2 SLP166 T00671061 50002
KGCN 080754Z AUTO 00000KT 10SM CLR 08/M07 A3030 RMK AO2 SLP166 T00781067
KGCN 080654Z AUTO 00000KT 10SM CLR 09/M07 A3030 RMK AO2 SLP167 T00891067 403000022
KGCN 080554Z AUTO 00000KT 10SM CLR 09/M08 A3029 RMK AO2 SLP163 T00941078 10294 20094 51011
KGCN 080454Z AUTO 00000KT 10SM CLR 12/M07 A3029 RMK AO2 SLP163 T01171072
KGCN 080354Z AUTO 00000KT 10SM CLR 13/M08 A3027 RMK AO2 SLP157 T01281083
KGCN 080254Z AUTO 00000KT 10SM CLR 21/M07 A3025 RMK AO2 SLP139 T02111067 53009
KGCN 080154Z AUTO 23010KT 10SM CLR 26/M06 A3023 RMK AO2 SLP143 T02611056
KGCN 080054Z AUTO 21016G23KT 10SM CLR 28/M04 A3022 RMK AO2 SLP151 T02781044
KGCN 072354Z 22013G25KT 10SM CLR 29/M06 A3022 RMK AO2 PK WND 21032/2259 SLP149 T02891061 10300 20272 56004
KGCN 072254Z 22017G29KT 10SM CLR 29/M06 A3022 RMK AO2 PK WND 21030/2200 SLP149 T02941061
KGCN 072154Z 20013G28KT 10SM CLR 29/M03 A3023 RMK AO2 PK WND 21033/2132 SLP149 T02941033
KGCN 072054Z 22022G28KT 10SM CLR 29/M03 A3024 RMK AO2 PK WND 21028/2053 SLP149 T02941028 58007
KGCN 071954Z 20015G26KT 10SM CLR 28/M03 A3026 RMK AO2 PK WND 21033/1857 SLP160 T02831028
KGCN 071854Z 21016G26KT 10SM CLR 28/M03 A3026 RMK AO2 PK WND 23030/1815 SLP157 T02781028
KGCN 071754Z 20012G26KT 10SM CLR 27/M02 A3026 RMK AO2 PK WND 21026/1745 SLP156 T02721017 10272 20022 50003
KGCN 071654Z 20014G23KT 10SM CLR 25/M01 A3028 RMK AO2 SLP163 T02501006
KGCN 071554Z 19011KT 10SM CLR 23/M02 A3027 RMK AO2 SLP157 T02331022
KGCN 071454Z 00000KT 10SM CLR 20/M03 A3025 RMK AO2 SLP140 T02001033 53012
KGCN 071354Z AUTO 00000KT 10SM CLR 10/M06 A3023 RMK AO2 SLP146 T01001056
KGCN 071254Z AUTO 05003KT 10SM CLR 03/M08 A3022 RMK AO2 SLP155 T00331078
KGCN 071154Z AUTO 00000KT 10SM CLR 03/M08 A3021 RMK AO2 SLP148 T00281083 10078 20022 53002
KGCN 071054Z AUTO 00000KT 10SM CLR 03/M09 A3021 RMK AO2 SLP144 T00281089
KGCN 070954Z AUTO 09003KT 10SM CLR 04/M09 A3020 RMK AO2 SLP140 T00391089